createdAt,value
2018-05-07T00:03:10.315Z,14.99
2018-05-07T00:09:05.342Z,12.47
2018-05-07T00:15:00.374Z,12.12
2018-05-07T00:20:55.353Z,12.4
2018-05-07T00:26:50.356Z,11.97
2018-05-07T00:32:45.321Z,14.07
2018-05-07T00:38:40.365Z,13.73
2018-05-07T00:44:35.339Z,14.63
2018-05-07T00:50:30.354Z,13.95
2018-05-07T00:56:25.337Z,15.07
2018-05-07T01:02:20.330Z,12
2018-05-07T01:08:15.377Z,19.47
2018-05-07T01:14:10.321Z,13.8
2018-05-07T01:20:05.370Z,15.05
2018-05-07T01:26:00.391Z,13.05
2018-05-07T01:31:55.383Z,13.19
2018-05-07T01:37:50.367Z,13.9
2018-05-07T01:43:45.374Z,17.49
2018-05-07T01:49:40.362Z,16.53
2018-05-07T01:55:35.368Z,13.22
2018-05-07T02:01:30.372Z,13.92
2018-05-07T02:07:25.384Z,14.78
2018-05-07T02:13:20.395Z,16.27
2018-05-07T02:19:15.369Z,13.85
2018-05-07T02:25:10.395Z,15.93
2018-05-07T02:31:05.438Z,14.66
2018-05-07T02:37:00.377Z,18.23
2018-05-07T02:42:55.429Z,32.14
2018-05-07T02:48:50.384Z,18.19
2018-05-07T02:54:45.415Z,21.96
2018-05-07T03:00:40.452Z,28.03
2018-05-07T03:06:35.434Z,30.58
2018-05-07T03:12:30.464Z,24.45
2018-05-07T03:18:25.410Z,28.46
2018-05-07T03:24:20.397Z,23.76
2018-05-07T03:30:15.418Z,19.5
2018-05-07T03:36:10.445Z,27.39
2018-05-07T03:42:05.416Z,24.29
2018-05-07T03:48:00.452Z,26.16
2018-05-07T03:53:55.481Z,26.87
2018-05-07T03:59:50.520Z,27.48
2018-05-07T04:05:45.418Z,28.27
2018-05-07T04:11:40.470Z,27.13
2018-05-07T04:17:35.514Z,27.23
2018-05-07T04:23:30.566Z,27.88
2018-05-07T04:29:25.456Z,33.91
2018-05-07T04:35:20.547Z,30.8
2018-05-07T04:41:15.504Z,30.87
2018-05-07T04:47:10.506Z,30.79
2018-05-07T04:53:05.511Z,26.77
2018-05-07T04:59:00.520Z,27.32
2018-05-07T05:04:55.449Z,27.47
2018-05-07T05:10:50.469Z,26.13
2018-05-07T05:16:45.477Z,26.47
2018-05-07T05:22:40.496Z,29.7
2018-05-07T05:28:35.496Z,28.14
2018-05-07T05:34:30.491Z,27.47
2018-05-07T05:40:25.559Z,31.17
2018-05-07T05:46:20.498Z,33.72
2018-05-07T05:52:15.494Z,29.38
2018-05-07T05:58:10.536Z,30.78
2018-05-07T06:04:05.670Z,33.34
2018-05-07T06:10:00.526Z,32.87
2018-05-07T06:15:55.535Z,31.89
2018-05-07T06:21:50.517Z,35.77
2018-05-07T06:27:45.494Z,32.78
2018-05-07T06:33:40.523Z,29.34
2018-05-07T06:39:35.522Z,28.89
2018-05-07T06:45:30.553Z,30.21
2018-05-07T06:51:25.516Z,33.86
2018-05-07T06:57:20.556Z,32.23
2018-05-07T07:03:15.570Z,30.91
2018-05-07T07:09:10.528Z,29.6
2018-05-07T07:15:05.551Z,32.02
2018-05-07T07:21:00.549Z,31.07
2018-05-07T07:26:55.542Z,29.47
2018-05-07T07:32:50.620Z,23.67
2018-05-07T07:38:45.579Z,30.24
2018-05-07T07:44:40.560Z,27.74
2018-05-07T07:50:35.606Z,27.81
2018-05-07T07:56:30.562Z,25.62
2018-05-07T08:02:25.580Z,26.18
2018-05-07T08:08:20.572Z,29.18
2018-05-07T08:14:15.560Z,25.66
2018-05-07T08:20:10.605Z,26.07
2018-05-07T08:26:05.635Z,28.47
2018-05-07T08:32:00.586Z,23.6
2018-05-07T08:37:55.582Z,19.28
2018-05-07T08:43:50.575Z,21.95
2018-05-07T08:49:45.630Z,20.08
2018-05-07T08:55:40.566Z,22.98
2018-05-07T09:01:35.653Z,21.77
2018-05-07T09:07:30.640Z,21.3
2018-05-07T09:13:25.602Z,18.9
2018-05-07T09:19:20.591Z,17.22
2018-05-07T09:25:15.631Z,17.55
2018-05-07T09:31:10.617Z,20.3
2018-05-07T09:37:05.739Z,19.11
2018-05-07T09:43:00.632Z,18.07
2018-05-07T09:48:55.673Z,16.96
2018-05-07T09:54:50.616Z,15.77
2018-05-07T10:00:45.664Z,17.81
2018-05-07T10:06:40.634Z,19.13
2018-05-07T10:12:35.689Z,20.5
2018-05-07T10:18:30.618Z,18.19
2018-05-07T10:24:25.637Z,17.23
2018-05-07T10:30:20.659Z,21.25
2018-05-07T10:36:15.637Z,21.28
2018-05-07T10:42:10.662Z,19.68
2018-05-07T10:48:05.674Z,17.87
2018-05-07T10:54:00.659Z,18.99
2018-05-07T10:59:55.648Z,15.32
2018-05-07T11:05:50.668Z,14.43
2018-05-07T11:11:45.720Z,14.51
2018-05-07T11:17:40.704Z,12.9
2018-05-07T11:23:35.695Z,12.21
2018-05-07T11:29:30.686Z,12.52
2018-05-07T11:35:25.700Z,11.97
2018-05-07T11:41:20.736Z,10.4
2018-05-07T11:47:15.700Z,11.5
2018-05-07T11:53:10.748Z,9.88
2018-05-07T11:59:05.712Z,7.95
2018-05-07T12:05:00.718Z,7.72
2018-05-07T12:10:55.703Z,8.28
2018-05-07T12:16:50.700Z,8.74
2018-05-07T12:22:45.711Z,7.62
2018-05-07T12:28:40.728Z,6.87
2018-05-07T12:34:35.716Z,6.94
2018-05-07T12:40:30.695Z,6.01
2018-05-07T12:46:25.731Z,6.59
2018-05-07T12:52:20.781Z,7.35
2018-05-07T12:58:15.743Z,6.73
2018-05-07T13:04:10.734Z,7.3
2018-05-07T13:10:05.710Z,7.08
2018-05-07T13:16:00.749Z,7.1
2018-05-07T13:21:55.725Z,8.78
2018-05-07T13:27:50.752Z,8.1
2018-05-07T13:33:45.751Z,7.52
2018-05-07T13:39:40.819Z,8.3
2018-05-07T13:45:35.768Z,8.33
2018-05-07T13:51:30.745Z,6.78
2018-05-07T13:57:25.758Z,7.23
2018-05-07T14:03:20.778Z,6.8
2018-05-07T14:09:15.749Z,8.04
2018-05-07T14:15:10.759Z,7.23
2018-05-07T14:21:05.817Z,9.19
2018-05-07T14:27:00.786Z,10.65
2018-05-07T14:32:55.792Z,8.59
2018-05-07T14:38:50.901Z,9.15
2018-05-07T14:44:45.796Z,8.13
2018-05-07T14:50:40.822Z,8.3
2018-05-07T14:56:35.797Z,8.85
2018-05-07T15:02:30.762Z,9.97
2018-05-07T15:08:25.809Z,19.27
2018-05-07T15:14:20.812Z,21.89
2018-05-07T15:20:15.831Z,22.17
2018-05-07T15:26:10.832Z,17.27
2018-05-07T15:32:05.835Z,13.15
2018-05-07T15:38:00.893Z,10.25
2018-05-07T15:43:55.874Z,12.03
2018-05-07T15:49:50.809Z,10.4
2018-05-07T15:55:45.826Z,14.07
2018-05-07T16:01:40.834Z,17.08
2018-05-07T16:07:35.820Z,12.49
2018-05-07T16:13:30.860Z,15
2018-05-07T16:19:25.951Z,14.26
2018-05-07T16:25:20.899Z,13.72
2018-05-07T16:31:15.968Z,13.55
2018-05-07T16:37:10.855Z,13.52
2018-05-07T16:43:05.858Z,12.71
2018-05-07T16:49:00.970Z,15.46
2018-05-07T16:54:55.881Z,12.53
2018-05-07T17:00:50.883Z,15.12
2018-05-07T17:06:45.877Z,13.98
2018-05-07T17:12:40.871Z,13.83
2018-05-07T17:18:35.866Z,14.33
2018-05-07T17:24:30.978Z,13.61
2018-05-07T17:30:25.889Z,15.2
2018-05-07T17:36:20.899Z,16.83
2018-05-07T17:42:15.896Z,17.83
2018-05-07T17:48:10.979Z,17.05
2018-05-07T17:54:05.939Z,14.16
2018-05-07T18:00:00.957Z,12.61
2018-05-07T18:05:55.880Z,13.9
2018-05-07T18:11:50.934Z,16.38
2018-05-07T18:17:45.910Z,16.32
2018-05-07T18:23:41.095Z,15.82
2018-05-07T18:29:35.994Z,15.62
2018-05-07T18:35:30.928Z,13.8
2018-05-07T18:41:25.895Z,14.87
2018-05-07T18:47:20.962Z,12.26
2018-05-07T18:53:15.942Z,11.57
2018-05-07T18:59:10.931Z,11.14
2018-05-07T19:05:05.948Z,11.27
2018-05-07T19:11:00.953Z,12.82
2018-05-07T19:16:55.934Z,12.05
2018-05-07T19:22:50.952Z,13.96
2018-05-07T19:28:45.946Z,16.41
2018-05-07T19:34:40.948Z,17.04
2018-05-07T19:40:35.936Z,15.04
2018-05-07T19:46:30.935Z,13.97
2018-05-07T19:52:25.970Z,16.13
2018-05-07T19:58:20.995Z,16.43
2018-05-07T20:04:15.962Z,16.27
2018-05-07T20:10:10.961Z,17.01
2018-05-07T20:16:05.993Z,16.6
2018-05-07T20:22:00.973Z,15.67
2018-05-07T20:27:55.965Z,13.64
2018-05-07T20:33:50.996Z,16.91
2018-05-07T20:39:46.123Z,12.8
2018-05-07T20:45:41.015Z,12.3
2018-05-07T20:51:35.971Z,15.13
2018-05-07T20:57:30.987Z,12.29
2018-05-07T21:03:25.997Z,12.19
2018-05-07T21:09:21.005Z,13.18
2018-05-07T21:15:16.009Z,13.1
2018-05-07T21:21:11.043Z,13.41
2018-05-07T21:27:06.047Z,14.09
2018-05-07T21:33:01.006Z,11.75
2018-05-07T21:38:56.108Z,10.95
2018-05-07T21:44:51.013Z,10.77
2018-05-07T21:50:46.103Z,13.72
2018-05-07T21:56:41.034Z,12.12
2018-05-07T22:02:36.131Z,13.87
2018-05-07T22:08:31.089Z,11.28
2018-05-07T22:14:26.044Z,14.56
2018-05-07T22:20:21.045Z,12.66
2018-05-07T22:26:16.070Z,11.66
2018-05-07T22:32:11.091Z,11.8
2018-05-07T22:38:06.052Z,10.1
2018-05-07T22:44:01.090Z,10.32
2018-05-07T22:49:56.037Z,11.68
2018-05-07T22:55:51.061Z,13.08
2018-05-07T23:01:46.062Z,10.68
2018-05-07T23:07:41.118Z,10.57
2018-05-07T23:13:36.070Z,9.87
2018-05-07T23:19:31.093Z,12.03
2018-05-07T23:25:26.183Z,10.59
2018-05-07T23:31:21.090Z,12.53
2018-05-07T23:37:16.085Z,12.31
2018-05-07T23:43:11.093Z,12.92
2018-05-07T23:49:06.073Z,12.94
2018-05-07T23:55:01.128Z,11.3
